Time;durP1;ratioP1;P1;durP2;ratioP2;P2;SDS_P1;SDS_P2;PMS_P1;PMS_P2;Temp;Humidity;BMP_temperature;BMP_pressure;BME280_temperature;BME280_humidity;BME280_pressure;Samples;Min_cycle;Max_cycle;Signal;HPM_P1;HPM_P2
2024/04/17 00:00:25;;;;;;;14.27;2.70;;;6.30;99.90;;;;;;7345683;32;20136;-57
2024/04/17 00:04:26;;;;;;;13.13;2.65;;;6.20;99.90;;;;;;7343833;32;20155;-57
2024/04/17 00:08:27;;;;;;;14.18;2.75;;;6.10;99.90;;;;;;7343386;32;20103;-58
2024/04/17 00:12:28;;;;;;;10.82;2.53;;;5.90;99.90;;;;;;7342450;32;20264;-57
2024/04/17 00:16:28;;;;;;;11.95;2.97;;;5.90;99.90;;;;;;7346054;32;20103;-57
2024/04/17 00:20:29;;;;;;;11.43;2.65;;;5.90;99.90;;;;;;7341653;32;20125;-55
2024/04/17 00:24:30;;;;;;;12.00;2.90;;;5.80;99.90;;;;;;7343391;32;20589;-57
2024/04/17 00:28:31;;;;;;;10.73;3.00;;;5.70;99.90;;;;;;7341803;32;20125;-56
2024/04/17 00:32:32;;;;;;;7.90;2.80;;;5.70;99.90;;;;;;7341075;32;20321;-56
2024/04/17 00:36:33;;;;;;;10.20;3.08;;;5.60;99.90;;;;;;7335972;32;20579;-56
2024/04/17 00:40:35;;;;;;;10.93;2.83;;;5.60;99.90;;;;;;7339518;32;20221;-56
2024/04/17 00:44:36;;;;;;;7.75;2.75;;;5.50;99.90;;;;;;7345971;32;20119;-56
2024/04/17 00:48:37;;;;;;;10.32;2.75;;;5.50;99.90;;;;;;7337810;32;20200;-57
2024/04/17 00:52:38;;;;;;;8.32;2.78;;;5.40;99.90;;;;;;7337577;32;20158;-58
2024/04/17 00:56:40;;;;;;;9.27;3.20;;;5.40;99.90;;;;;;7335180;32;20305;-57
2024/04/17 01:00:41;;;;;;;12.75;3.58;;;5.30;99.90;;;;;;7344095;32;20111;-55
2024/04/17 01:04:41;;;;;;;6.95;2.22;;;5.30;99.90;;;;;;7342829;32;20280;-56
2024/04/17 01:08:42;;;;;;;10.88;2.97;;;5.10;99.90;;;;;;7337381;32;20273;-56
2024/04/17 01:12:43;;;;;;;10.57;2.42;;;5.10;99.90;;;;;;7335695;32;20288;-57
2024/04/17 01:16:44;;;;;;;6.25;2.10;;;5.10;99.90;;;;;;7345206;32;20587;-57
2024/04/17 01:20:45;;;;;;;8.43;2.10;;;4.90;99.90;;;;;;7337557;32;20111;-56
2024/04/17 01:24:46;;;;;;;7.45;2.25;;;4.90;99.90;;;;;;7344328;32;20099;-57
2024/04/17 01:28:46;;;;;;;11.50;2.35;;;4.80;99.90;;;;;;7336470;32;20148;-56
2024/04/17 01:32:47;;;;;;;9.70;2.20;;;4.70;99.90;;;;;;7344838;32;20146;-56
2024/04/17 01:36:48;;;;;;;7.55;1.90;;;4.60;99.90;;;;;;7345974;32;20170;-56
2024/04/17 01:40:49;;;;;;;10.65;2.35;;;4.60;99.90;;;;;;7337643;32;20518;-56
2024/04/17 01:44:50;;;;;;;10.02;2.45;;;4.50;99.90;;;;;;7341497;32;20153;-56
2024/04/17 01:48:50;;;;;;;10.48;2.20;;;4.50;99.90;;;;;;7338731;32;20251;-56
2024/04/17 01:52:51;;;;;;;11.57;2.67;;;4.40;99.90;;;;;;7343956;32;20284;-56
2024/04/17 01:56:52;;;;;;;4.43;2.30;;;4.30;99.90;;;;;;7334542;32;20305;-56
2024/04/17 02:00:53;;;;;;;6.40;2.03;;;4.30;99.90;;;;;;7335969;32;20110;-56
2024/04/17 02:04:54;;;;;;;7.95;2.92;;;4.20;99.90;;;;;;7337000;32;20559;-56
2024/04/17 02:08:55;;;;;;;9.70;2.40;;;4.10;99.90;;;;;;7340348;32;20217;-57
2024/04/17 02:12:55;;;;;;;7.90;1.90;;;4.00;99.90;;;;;;7337185;32;20103;-57
2024/04/17 02:16:56;;;;;;;5.65;1.70;;;4.00;99.90;;;;;;7336726;32;20210;-56
2024/04/17 02:20:58;;;;;;;11.95;2.42;;;3.90;99.90;;;;;;7341939;32;20293;-56
2024/04/17 02:24:59;;;;;;;5.25;1.92;;;3.90;99.90;;;;;;7339233;32;20202;-56
2024/04/17 02:29:00;;;;;;;10.38;2.10;;;3.80;99.90;;;;;;7335285;32;20131;-56
2024/04/17 02:33:01;;;;;;;9.20;2.42;;;3.80;99.90;;;;;;7334483;32;20125;-56
2024/04/17 02:37:02;;;;;;;7.65;1.92;;;3.70;99.90;;;;;;7341268;32;20615;-56
2024/04/17 02:41:03;;;;;;;9.07;2.25;;;3.70;99.90;;;;;;7334809;32;20147;-55
2024/04/17 02:45:05;;;;;;;5.25;2.10;;;3.60;99.90;;;;;;7339585;32;20540;-55
2024/04/17 02:49:05;;;;;;;5.62;1.95;;;3.50;99.90;;;;;;7335325;32;20149;-56
2024/04/17 02:53:06;;;;;;;9.50;1.80;;;3.50;99.90;;;;;;7331274;32;20454;-57
2024/04/17 02:57:07;;;;;;;9.40;2.00;;;3.50;99.90;;;;;;7334573;32;20135;-55
2024/04/17 03:01:15;;;;;;;4.78;1.90;;;3.40;99.90;;;;;;7345122;32;20107;-56
2024/04/17 03:05:16;;;;;;;4.55;1.92;;;3.30;99.90;;;;;;7340709;32;20147;-55
2024/04/17 03:09:17;;;;;;;4.72;1.58;;;3.30;99.90;;;;;;7345157;32;20567;-55
2024/04/17 03:13:18;;;;;;;8.13;1.83;;;3.20;99.90;;;;;;7341959;32;20183;-56
2024/04/17 03:17:19;;;;;;;9.18;2.00;;;3.10;99.90;;;;;;7345034;32;20161;-56
2024/04/17 03:21:19;;;;;;;6.37;2.12;;;3.10;99.90;;;;;;7342313;32;20505;-57
2024/04/17 03:25:20;;;;;;;8.57;2.37;;;3.10;99.90;;;;;;7345891;32;20280;-56
2024/04/17 03:29:21;;;;;;;7.45;3.17;;;3.00;99.90;;;;;;7342490;32;20119;-56
2024/04/17 03:33:23;;;;;;;6.20;2.40;;;2.90;99.90;;;;;;7344493;32;20238;-59
2024/04/17 03:37:24;;;;;;;6.97;2.50;;;2.80;99.90;;;;;;7343976;32;20607;-56
2024/04/17 03:41:25;;;;;;;7.60;3.35;;;2.80;99.90;;;;;;7341993;32;20107;-56
2024/04/17 03:45:27;;;;;;;6.00;2.30;;;2.70;99.90;;;;;;7341723;32;20209;-55
2024/04/17 03:49:28;;;;;;;6.90;2.28;;;2.70;99.90;;;;;;7342115;32;20131;-56
2024/04/17 03:53:29;;;;;;;5.87;2.20;;;2.70;99.90;;;;;;7338215;32;20210;-55
2024/04/17 03:57:30;;;;;;;6.25;2.30;;;2.60;99.90;;;;;;7345702;32;20145;-56
2024/04/17 04:01:34;;;;;;;6.95;2.40;;;2.60;99.90;;;;;;7345131;32;20135;-58
2024/04/17 04:05:35;;;;;;;7.07;2.47;;;2.60;99.90;;;;;;7340210;32;20111;-55
2024/04/17 04:09:36;;;;;;;6.07;2.15;;;2.60;99.90;;;;;;7336242;32;20183;-56
2024/04/17 04:13:37;;;;;;;5.78;1.65;;;2.50;99.90;;;;;;7336200;32;20529;-57
2024/04/17 04:17:38;;;;;;;4.50;1.70;;;2.50;99.90;;;;;;7345396;32;20206;-57
2024/04/17 04:21:38;;;;;;;4.70;2.05;;;2.40;99.90;;;;;;7346380;32;20160;-58
2024/04/17 04:25:39;;;;;;;3.22;1.25;;;2.40;99.90;;;;;;7345463;32;20500;-58
2024/04/17 04:29:40;;;;;;;6.53;1.87;;;2.40;99.90;;;;;;7346007;32;20786;-56
2024/04/17 04:33:41;;;;;;;4.53;1.87;;;2.40;99.90;;;;;;7341188;32;20271;-57
2024/04/17 04:37:42;;;;;;;5.65;1.77;;;2.30;99.90;;;;;;7338752;32;20107;-56
2024/04/17 04:41:43;;;;;;;3.50;1.67;;;2.30;99.90;;;;;;7342255;32;20150;-58
2024/04/17 04:45:43;;;;;;;6.10;1.87;;;2.40;99.90;;;;;;7337729;32;20108;-58
2024/04/17 04:49:45;;;;;;;6.40;1.92;;;2.30;99.90;;;;;;7339127;32;20111;-58
2024/04/17 04:53:45;;;;;;;3.83;1.70;;;2.30;99.90;;;;;;7331873;32;20385;-58
2024/04/17 04:57:46;;;;;;;3.20;1.75;;;2.40;99.90;;;;;;7341719;32;20361;-59
2024/04/17 05:01:47;;;;;;;7.12;1.90;;;2.30;99.90;;;;;;7340396;32;20146;-58
2024/04/17 05:05:48;;;;;;;5.85;2.17;;;2.40;99.90;;;;;;7342026;32;20111;-58
2024/04/17 05:09:49;;;;;;;6.07;2.17;;;2.40;99.90;;;;;;7342194;32;20782;-58
2024/04/17 05:13:50;;;;;;;4.25;2.10;;;2.40;99.90;;;;;;7339326;32;20214;-58
2024/04/17 05:17:50;;;;;;;9.00;3.05;;;2.40;99.90;;;;;;7334605;32;20181;-58
2024/04/17 05:21:51;;;;;;;9.73;2.95;;;2.50;99.90;;;;;;7338828;32;20473;-57
2024/04/17 05:25:52;;;;;;;8.43;2.78;;;2.60;99.90;;;;;;7332856;32;20253;-59
2024/04/17 05:29:53;;;;;;;6.28;2.87;;;2.70;99.90;;;;;;7342764;32;20137;-57
2024/04/17 05:33:54;;;;;;;10.20;5.50;;;2.80;99.90;;;;;;7337511;32;20171;-57
2024/04/17 05:37:55;;;;;;;7.45;3.42;;;3.00;99.90;;;;;;7339122;32;20166;-57
2024/04/17 05:41:56;;;;;;;8.27;3.78;;;3.20;99.90;;;;;;7341975;32;20530;-57
2024/04/17 05:45:57;;;;;;;11.32;3.65;;;3.20;99.90;;;;;;7340440;32;20099;-57
2024/04/17 05:49:58;;;;;;;7.60;3.00;;;3.40;99.90;;;;;;7337970;32;20107;-57
2024/04/17 05:53:59;;;;;;;8.55;3.10;;;3.60;99.90;;;;;;7344709;32;20671;-57
2024/04/17 05:58:01;;;;;;;9.35;4.25;;;3.90;99.90;;;;;;7334991;32;20135;-57
2024/04/17 06:02:02;;;;;;;16.60;6.20;;;4.20;99.90;;;;;;7337349;32;20131;-57
2024/04/17 06:06:03;;;;;;;13.32;6.10;;;4.60;99.90;;;;;;7339046;32;20164;-57
2024/04/17 06:10:05;;;;;;;13.60;5.47;;;4.90;99.90;;;;;;7338211;32;20127;-57
2024/04/17 06:14:06;;;;;;;12.45;5.93;;;5.20;99.90;;;;;;7336863;32;20108;-57
2024/04/17 06:18:06;;;;;;;21.45;6.68;;;5.40;99.90;;;;;;7335188;32;20129;-57
2024/04/17 06:22:07;;;;;;;16.73;5.45;;;5.50;99.90;;;;;;7333692;32;20126;-57
2024/04/17 06:26:08;;;;;;;18.70;5.55;;;5.60;99.90;;;;;;7340762;32;20104;-58
2024/04/17 06:30:09;;;;;;;13.38;5.30;;;5.60;99.90;;;;;;7333005;32;20160;-56
2024/04/17 06:34:10;;;;;;;13.77;5.62;;;5.70;99.90;;;;;;7344241;32;20235;-57
2024/04/17 06:38:11;;;;;;;17.37;6.03;;;5.70;99.90;;;;;;7343131;32;20735;-57
2024/04/17 06:42:11;;;;;;;12.45;5.30;;;5.70;99.90;;;;;;7330913;32;20660;-57
2024/04/17 06:46:12;;;;;;;12.23;5.68;;;5.70;99.90;;;;;;7334177;32;20273;-58
2024/04/17 06:50:13;;;;;;;14.77;5.50;;;5.80;99.90;;;;;;7335108;32;20199;-58
2024/04/17 06:54:14;;;;;;;13.32;5.50;;;5.90;99.90;;;;;;7335561;32;20134;-57
2024/04/17 06:58:15;;;;;;;14.05;5.05;;;5.90;99.90;;;;;;7332871;32;20265;-57
2024/04/17 07:02:16;;;;;;;10.70;4.93;;;5.90;99.90;;;;;;7330888;32;20424;-57
2024/04/17 07:06:16;;;;;;;13.60;4.80;;;5.90;99.90;;;;;;7338219;32;20119;-58
2024/04/17 07:10:17;;;;;;;14.65;5.53;;;5.80;99.90;;;;;;7332450;32;20143;-57
2024/04/17 07:14:18;;;;;;;13.75;5.43;;;5.90;99.90;;;;;;7337550;32;20202;-58
2024/04/17 07:18:19;;;;;;;13.57;4.68;;;6.00;99.90;;;;;;7333355;32;20131;-58
2024/04/17 07:22:20;;;;;;;10.50;5.53;;;6.10;99.90;;;;;;7336748;32;20534;-58
2024/04/17 07:26:20;;;;;;;11.75;4.45;;;6.30;99.90;;;;;;7331006;32;20234;-58
2024/04/17 07:30:21;;;;;;;10.05;4.10;;;6.40;99.90;;;;;;7334315;32;20119;-58
2024/04/17 07:34:22;;;;;;;8.60;4.78;;;6.40;99.90;;;;;;7340476;32;20237;-57
2024/04/17 07:38:23;;;;;;;8.77;4.22;;;6.50;99.90;;;;;;7328736;32;20771;-58
2024/04/17 07:42:24;;;;;;;6.57;4.37;;;6.50;99.90;;;;;;7333162;32;20123;-57
2024/04/17 07:46:25;;;;;;;8.10;4.32;;;6.40;99.90;;;;;;7334462;32;20142;-58
2024/04/17 07:50:25;;;;;;;10.90;5.80;;;6.40;99.90;;;;;;7325374;32;20222;-57
2024/04/17 07:54:26;;;;;;;9.68;6.15;;;6.20;99.90;;;;;;7332188;32;20506;-58
2024/04/17 07:58:27;;;;;;;10.73;5.68;;;6.10;99.90;;;;;;7328307;32;20111;-58
2024/04/17 08:02:28;;;;;;;10.07;6.40;;;6.20;99.90;;;;;;7331441;32;20216;-58
2024/04/17 08:06:29;;;;;;;12.95;6.37;;;6.20;99.90;;;;;;7332478;32;20145;-58
2024/04/17 08:10:30;;;;;;;9.93;5.43;;;6.30;99.90;;;;;;7334713;32;20107;-58
2024/04/17 08:14:31;;;;;;;10.52;4.75;;;6.50;99.90;;;;;;7333359;32;20191;-59
2024/04/17 08:18:32;;;;;;;7.10;5.15;;;6.70;99.90;;;;;;7329565;32;20441;-58
2024/04/17 08:22:33;;;;;;;10.25;4.82;;;7.00;99.90;;;;;;7336727;32;20697;-57
2024/04/17 08:26:33;;;;;;;9.00;4.90;;;7.10;99.90;;;;;;7328366;32;20323;-58
2024/04/17 08:30:34;;;;;;;11.12;5.00;;;7.30;99.90;;;;;;7331111;32;20201;-59
2024/04/17 08:34:35;;;;;;;7.35;4.15;;;7.50;99.90;;;;;;7331116;32;20206;-58
2024/04/17 08:38:36;;;;;;;7.97;2.80;;;7.60;99.90;;;;;;7333062;32;20213;-59
2024/04/17 08:42:40;;;;;;;5.07;2.80;;;7.50;99.90;;;;;;7331626;32;20206;-58
2024/04/17 08:46:43;;;;;;;6.97;2.65;;;7.40;99.90;;;;;;7331558;32;20122;-58
2024/04/17 08:50:45;;;;;;;9.00;3.05;;;7.70;99.90;;;;;;7329405;32;20115;-58
2024/04/17 08:54:48;;;;;;;3.42;2.20;;;7.90;99.90;;;;;;7329453;32;20124;-57
2024/04/17 08:58:50;;;;;;;5.47;3.10;;;8.00;99.90;;;;;;7328194;32;20705;-58
2024/04/17 09:02:59;;;;;;;6.53;3.40;;;8.00;99.90;;;;;;7327942;32;20150;-58
2024/04/17 09:07:01;;;;;;;9.15;3.47;;;8.10;99.90;;;;;;7322837;32;20263;-57
2024/04/17 09:11:02;;;;;;;7.03;4.00;;;8.10;99.90;;;;;;7328729;32;20130;-57
2024/04/17 09:15:04;;;;;;;6.60;4.30;;;8.20;99.90;;;;;;7326450;32;20199;-59
2024/04/17 09:19:08;;;;;;;6.30;4.28;;;8.40;99.90;;;;;;7325793;32;20214;-58
2024/04/17 09:23:09;;;;;;;7.35;4.28;;;8.40;99.90;;;;;;7326081;32;20123;-58
2024/04/17 09:27:15;;;;;;;8.32;4.55;;;8.40;99.90;;;;;;7326628;32;20214;-57
2024/04/17 09:31:16;;;;;;;6.10;3.75;;;9.10;99.90;;;;;;7332665;32;20127;-58
2024/04/17 09:35:17;;;;;;;4.57;2.70;;;9.90;99.90;;;;;;7331881;32;20162;-57
2024/04/17 09:39:18;;;;;;;9.13;2.72;;;10.00;99.90;;;;;;7340752;32;20099;-58
2024/04/17 09:43:23;;;;;;;4.12;2.17;;;9.60;99.90;;;;;;7326015;32;20204;-57
2024/04/17 09:47:27;;;;;;;3.92;1.98;;;9.40;99.90;;;;;;7330305;32;20171;-58
2024/04/17 09:51:31;;;;;;;4.22;2.05;;;9.20;99.90;;;;;;7323122;32;20103;-58
2024/04/17 09:55:33;;;;;;;4.45;1.50;;;9.20;99.90;;;;;;7340152;32;20309;-57
2024/04/17 09:59:35;;;;;;;3.17;1.85;;;9.00;99.90;;;;;;7334042;32;20502;-57
2024/04/17 10:03:39;;;;;;;3.17;1.60;;;9.00;99.90;;;;;;7328034;32;20176;-58
2024/04/17 10:07:41;;;;;;;10.20;1.92;;;9.00;99.90;;;;;;7338349;32;20141;-57
2024/04/17 10:11:41;;;;;;;2.97;1.50;;;8.80;99.90;;;;;;7327634;32;20127;-58
2024/04/17 10:15:42;;;;;;;7.70;1.70;;;8.70;99.90;;;;;;7327444;32;20190;-57
2024/04/17 10:19:50;;;;;;;4.18;1.30;;;8.60;99.90;;;;;;7333859;32;20111;-58
2024/04/17 10:24:01;;;;;;;3.60;1.67;;;8.40;99.90;;;;;;7328458;32;20158;-58
2024/04/17 10:28:09;;;;;;;7.97;2.28;;;8.50;99.90;;;;;;7322166;32;20178;-58
2024/04/17 10:32:12;;;;;;;5.80;2.53;;;9.00;99.90;;;;;;7322217;32;20169;-58
2024/04/17 10:36:13;;;;;;;8.23;2.53;;;10.00;99.90;;;;;;7331869;32;20221;-58
2024/04/17 10:40:15;;;;;;;7.15;2.28;;;11.20;99.90;;;;;;7318564;32;20147;-58
2024/04/17 10:44:21;;;;;;;4.65;1.83;;;12.00;99.90;;;;;;7324337;32;20271;-58
2024/04/17 10:48:23;;;;;;;9.88;2.37;;;12.30;99.90;;;;;;7329734;32;20198;-57
2024/04/17 10:52:25;;;;;;;7.93;2.33;;;12.70;99.90;;;;;;7326088;32;20888;-58
2024/04/17 10:56:26;;;;;;;5.22;2.80;;;12.50;99.90;;;;;;7325540;32;20393;-58
2024/04/17 11:00:27;;;;;;;6.22;2.08;;;12.60;99.90;;;;;;7322358;32;20333;-58
2024/04/17 11:04:28;;;;;;;5.03;2.50;;;12.00;99.90;;;;;;7324362;32;20141;-59
2024/04/17 11:08:29;;;;;;;11.15;2.62;;;11.70;99.90;;;;;;7325978;32;20242;-58
2024/04/17 11:12:30;;;;;;;7.45;2.53;;;11.30;99.90;;;;;;7330927;32;20232;-57
2024/04/17 11:16:31;;;;;;;2.80;1.80;;;10.40;99.90;;;;;;7328296;32;20119;-58
2024/04/17 11:20:32;;;;;;;4.95;2.58;;;9.90;99.90;;;;;;7336834;32;20195;-58
2024/04/17 11:24:33;;;;;;;5.95;3.10;;;9.60;99.90;;;;;;7334160;32;20203;-58
2024/04/17 11:28:33;;;;;;;6.35;2.80;;;9.40;99.90;;;;;;7342197;32;20156;-58
2024/04/17 11:32:34;;;;;;;6.80;2.17;;;9.30;99.90;;;;;;7345697;32;20107;-58
2024/04/17 11:36:35;;;;;;;5.50;2.55;;;9.00;99.90;;;;;;7345733;32;20127;-59
2024/04/17 11:40:36;;;;;;;3.85;2.20;;;8.80;99.90;;;;;;7338084;32;20838;-58
2024/04/17 11:44:38;;;;;;;8.55;3.00;;;8.70;99.90;;;;;;7342025;32;20597;-59
2024/04/17 11:48:39;;;;;;;5.60;2.40;;;8.50;99.90;;;;;;7345212;32;20127;-59
2024/04/17 11:52:40;;;;;;;6.15;2.70;;;8.60;99.90;;;;;;7341047;32;20190;-57
2024/04/17 11:56:41;;;;;;;1.62;0.80;;;8.90;99.90;;;;;;7342929;32;20122;-57
2024/04/17 12:00:43;;;;;;;3.37;0.77;;;8.80;99.90;;;;;;7340308;32;20123;-62
2024/04/17 12:04:44;;;;;;;1.05;0.60;;;8.00;99.90;;;;;;7342109;32;20194;-57
2024/04/17 12:08:45;;;;;;;2.55;0.60;;;7.70;99.90;;;;;;7333686;32;20270;-57
2024/04/17 12:12:46;;;;;;;1.50;0.30;;;7.60;99.90;;;;;;7327246;32;20838;-58
2024/04/17 12:16:47;;;;;;;2.60;0.50;;;7.40;99.90;;;;;;7333509;32;20202;-58
2024/04/17 12:20:48;;;;;;;2.97;0.60;;;7.20;99.90;;;;;;7332228;32;20206;-57
2024/04/17 12:29:08;;;;;;;2.75;0.75;;;7.00;99.90;;;;;;7329852;32;20131;-57
2024/04/17 12:33:09;;;;;;;3.92;0.95;;;6.90;99.90;;;;;;7327614;32;20649;-57
2024/04/17 12:37:13;;;;;;;3.90;0.85;;;7.10;99.90;;;;;;7327701;32;20280;-57
2024/04/17 12:41:14;;;;;;;3.15;1.60;;;7.30;99.90;;;;;;7336873;32;20490;-58
2024/04/17 12:45:15;;;;;;;7.10;1.23;;;7.20;99.90;;;;;;7332499;32;20124;-57
2024/04/17 12:49:16;;;;;;;5.40;1.00;;;7.20;99.90;;;;;;7326066;32;20099;-57
2024/04/17 12:53:16;;;;;;;3.00;0.77;;;7.40;99.90;;;;;;7329336;32;20115;-57
2024/04/17 12:57:17;;;;;;;2.65;0.88;;;7.50;99.90;;;;;;7331025;32;20257;-57
2024/04/17 13:01:18;;;;;;;4.10;1.25;;;7.50;99.90;;;;;;7329171;32;20122;-57
2024/04/17 13:05:19;;;;;;;3.35;0.80;;;7.60;99.90;;;;;;7332375;32;20106;-58
2024/04/17 13:09:20;;;;;;;4.60;0.98;;;7.50;99.90;;;;;;7331509;32;20198;-57
2024/04/17 13:13:21;;;;;;;3.37;0.80;;;7.30;99.90;;;;;;7288259;32;20162;-57
2024/04/17 13:17:22;;;;;;;3.28;0.77;;;7.10;99.90;;;;;;7276413;32;20133;-57
2024/04/17 13:21:22;;;;;;;3.20;0.90;;;7.10;99.90;;;;;;7277426;32;21029;-58
2024/04/17 13:25:23;;;;;;;8.68;1.00;;;6.90;99.90;;;;;;7283036;32;20184;-57
2024/04/17 13:29:24;;;;;;;3.42;0.85;;;7.00;99.90;;;;;;7284112;32;20214;-57
2024/04/17 13:33:26;;;;;;;4.55;1.23;;;7.30;99.90;;;;;;7277907;32;20157;-58
2024/04/17 13:37:27;;;;;;;3.92;0.90;;;8.00;99.90;;;;;;7279167;32;20774;-57
2024/04/17 13:41:28;;;;;;;3.72;0.50;;;8.50;99.90;;;;;;7282871;32;20158;-58
2024/04/17 13:45:31;;;;;;;2.58;0.50;;;8.90;99.90;;;;;;7284739;32;20127;-57
2024/04/17 13:49:32;;;;;;;2.25;0.62;;;9.20;99.90;;;;;;7283719;32;20223;-56
2024/04/17 13:53:34;;;;;;;3.00;0.60;;;9.70;99.90;;;;;;7276714;32;20115;-56
2024/04/17 13:57:35;;;;;;;2.28;0.55;;;9.90;99.90;;;;;;7282210;32;20146;-57
2024/04/17 14:01:36;;;;;;;2.10;0.62;;;10.10;99.90;;;;;;7281297;32;20176;-57
2024/04/17 14:05:38;;;;;;;3.37;0.90;;;10.40;99.90;;;;;;7283799;32;20169;-57
2024/04/17 14:09:39;;;;;;;4.40;0.93;;;10.70;99.90;;;;;;7281726;32;20108;-56
2024/04/17 14:13:39;;;;;;;5.10;1.10;;;10.80;99.90;;;;;;7275575;32;20301;-57
2024/04/17 14:17:40;;;;;;;4.07;0.73;;;10.80;99.90;;;;;;7283920;32;20249;-57
2024/04/17 14:21:41;;;;;;;2.50;1.00;;;10.80;99.90;;;;;;7279162;32;20145;-57
2024/04/17 14:25:42;;;;;;;2.55;1.30;;;10.80;99.90;;;;;;7276696;32;20803;-57
2024/04/17 14:29:43;;;;;;;3.37;0.70;;;10.70;99.90;;;;;;7276189;32;20282;-57
2024/04/17 14:33:44;;;;;;;1.62;0.82;;;10.90;99.90;;;;;;7275179;32;20175;-56
2024/04/17 14:37:45;;;;;;;1.92;0.50;;;10.70;99.90;;;;;;7282083;32;20151;-56
2024/04/17 14:41:46;;;;;;;2.50;0.40;;;10.60;99.90;;;;;;7280605;32;20858;-57
2024/04/17 14:45:57;;;;;;;0.50;0.25;;;10.60;99.90;;;;;;7279322;32;20123;-57
2024/04/17 14:49:58;;;;;;;1.98;0.45;;;10.80;99.90;;;;;;7279910;32;20267;-57
2024/04/17 14:53:59;;;;;;;5.37;0.70;;;10.80;99.90;;;;;;7281622;32;20281;-57
2024/04/17 14:58:00;;;;;;;3.42;0.68;;;10.80;99.90;;;;;;7288695;32;20225;-57
2024/04/17 15:02:01;;;;;;;2.78;0.80;;;11.00;99.90;;;;;;7284492;32;20210;-57
2024/04/17 15:06:09;;;;;;;2.42;0.77;;;10.80;99.90;;;;;;7292133;32;20226;-57
2024/04/17 15:10:10;;;;;;;1.83;0.60;;;10.70;99.90;;;;;;7289243;32;20201;-58
2024/04/17 15:14:11;;;;;;;1.75;0.50;;;10.40;99.90;;;;;;7288886;32;20325;-57
2024/04/17 15:18:11;;;;;;;1.83;0.65;;;10.10;99.90;;;;;;7285486;32;20647;-59
2024/04/17 15:22:12;;;;;;;2.17;0.55;;;9.90;99.90;;;;;;7289069;32;20195;-57
2024/04/17 15:26:16;;;;;;;4.07;0.88;;;9.70;99.90;;;;;;7285557;32;20262;-55
2024/04/17 15:30:16;;;;;;;7.32;1.17;;;9.40;99.90;;;;;;7287000;32;20138;-57
2024/04/17 15:34:17;;;;;;;2.97;0.85;;;9.10;99.90;;;;;;7283345;32;20112;-58
2024/04/17 15:38:18;;;;;;;2.03;0.60;;;9.00;99.90;;;;;;7285134;32;20127;-57
2024/04/17 15:42:19;;;;;;;1.70;0.70;;;8.80;99.90;;;;;;7286055;32;20108;-56
2024/04/17 15:46:20;;;;;;;2.92;0.90;;;8.50;99.90;;;;;;7285709;32;20200;-57
2024/04/17 15:50:25;;;;;;;4.85;1.33;;;8.20;99.90;;;;;;7288883;32;20223;-58
2024/04/17 15:54:26;;;;;;;2.87;1.40;;;8.10;99.90;;;;;;7288782;32;20280;-58
2024/04/17 15:58:27;;;;;;;3.92;1.40;;;7.90;99.90;;;;;;7280294;32;20113;-57
2024/04/17 16:02:28;;;;;;;2.08;1.35;;;7.70;99.90;;;;;;7280775;32;20616;-58
2024/04/17 16:06:29;;;;;;;4.40;2.47;;;7.40;99.90;;;;;;7283891;32;20239;-57
2024/04/17 16:10:30;;;;;;;3.33;1.65;;;7.10;99.90;;;;;;7279336;32;20206;-57
2024/04/17 16:14:31;;;;;;;1.62;1.40;;;6.90;99.90;;;;;;7284209;32;20162;-56
2024/04/17 16:18:33;;;;;;;2.42;1.48;;;6.80;99.90;;;;;;7278687;32;20198;-58
2024/04/17 16:22:33;;;;;;;2.20;1.30;;;6.40;99.90;;;;;;7287694;32;20145;-58
2024/04/17 16:26:34;;;;;;;3.53;1.50;;;6.30;99.90;;;;;;7283592;32;20104;-57
2024/04/17 16:30:35;;;;;;;2.55;1.77;;;6.20;99.90;;;;;;7285620;32;20112;-57
2024/04/17 16:34:36;;;;;;;5.70;2.30;;;6.20;99.90;;;;;;7286698;32;20127;-57
2024/04/17 16:38:37;;;;;;;3.72;2.37;;;6.20;99.90;;;;;;7286562;32;20486;-58
2024/04/17 16:47:42;;;;;;;3.80;2.08;;;6.20;99.90;;;;;;7276924;32;20241;-58
2024/04/17 16:51:43;;;;;;;3.62;1.83;;;6.10;99.90;;;;;;7284461;32;20201;-56
2024/04/17 16:55:47;;;;;;;2.28;1.80;;;6.10;99.90;;;;;;7283749;32;20107;-58
2024/04/17 16:59:48;;;;;;;3.12;2.00;;;6.00;99.90;;;;;;7283683;32;20139;-57
2024/04/17 17:03:49;;;;;;;7.90;3.50;;;6.00;99.90;;;;;;7284491;32;20665;-57
2024/04/17 17:07:55;;;;;;;3.17;2.40;;;6.00;99.90;;;;;;7282625;32;20236;-58
2024/04/17 17:11:55;;;;;;;3.22;2.22;;;6.00;99.90;;;;;;7287236;32;20228;-58
2024/04/17 17:16:04;;;;;;;4.03;2.30;;;5.90;99.90;;;;;;7278284;32;20503;-56
2024/04/17 17:20:05;;;;;;;3.50;2.20;;;6.00;99.90;;;;;;7287476;32;20144;-57
2024/04/17 17:24:07;;;;;;;5.53;2.28;;;6.00;99.90;;;;;;7282769;32;20724;-56
2024/04/17 17:28:08;;;;;;;4.05;2.20;;;6.00;99.90;;;;;;7292175;32;20103;-57
2024/04/17 17:32:08;;;;;;;5.57;2.15;;;6.00;99.90;;;;;;7287670;32;20116;-56
2024/04/17 17:36:12;;;;;;;5.85;2.45;;;6.10;99.90;;;;;;7283687;32;20479;-57
2024/04/17 17:40:13;;;;;;;4.55;2.47;;;6.20;99.90;;;;;;7288564;32;20214;-58
2024/04/17 17:44:14;;;;;;;5.75;2.55;;;6.20;99.90;;;;;;7290402;32;20249;-59
2024/04/17 17:48:15;;;;;;;4.50;2.40;;;6.20;99.90;;;;;;7285222;32;20183;-58
2024/04/17 17:52:17;;;;;;;4.70;2.90;;;6.20;99.90;;;;;;7289782;32;20223;-57
2024/04/17 17:56:19;;;;;;;2.58;2.03;;;6.20;99.90;;;;;;7290217;32;20128;-57
2024/04/17 18:00:20;;;;;;;3.45;2.58;;;6.20;99.90;;;;;;7286104;32;20123;-57
2024/04/17 18:04:21;;;;;;;6.25;2.90;;;6.20;99.90;;;;;;7284319;32;20142;-57
2024/04/17 18:08:22;;;;;;;5.15;2.75;;;6.20;99.90;;;;;;7286437;32;20135;-60
2024/04/17 18:12:23;;;;;;;5.95;2.90;;;6.30;99.90;;;;;;7275447;32;20292;-57
2024/04/17 18:16:26;;;;;;;3.70;3.08;;;6.20;99.90;;;;;;7288018;32;20238;-57
2024/04/17 18:20:33;;;;;;;4.78;3.10;;;6.20;99.90;;;;;;7280859;32;20203;-57
2024/04/17 18:24:34;;;;;;;4.55;2.83;;;6.20;99.90;;;;;;7291380;32;20214;-56
2024/04/17 18:28:36;;;;;;;5.12;2.97;;;6.00;99.90;;;;;;7287012;32;20809;-56
2024/04/17 18:32:39;;;;;;;3.83;3.08;;;6.10;99.90;;;;;;7284595;32;20176;-57
2024/04/17 18:36:43;;;;;;;5.62;3.28;;;6.10;99.90;;;;;;7288332;32;20103;-58
2024/04/17 18:40:45;;;;;;;6.07;3.25;;;6.00;99.90;;;;;;7286399;32;20219;-57
2024/04/17 18:44:46;;;;;;;4.68;3.78;;;5.80;99.90;;;;;;7284509;32;20146;-55
2024/04/17 18:48:49;;;;;;;4.47;3.53;;;5.80;99.90;;;;;;7280141;32;20127;-57
2024/04/17 18:52:52;;;;;;;6.78;4.40;;;5.80;99.90;;;;;;7282421;32;20246;-57
2024/04/17 18:56:54;;;;;;;7.05;5.12;;;5.80;99.90;;;;;;7290042;32;20325;-58
2024/04/17 19:01:02;;;;;;;7.00;5.28;;;5.80;99.90;;;;;;7281388;32;20132;-57
2024/04/17 19:05:04;;;;;;;6.18;4.05;;;5.80;99.90;;;;;;7283842;32;20463;-58
2024/04/17 19:09:10;;;;;;;6.97;4.05;;;5.80;99.90;;;;;;7255712;32;20111;-57
2024/04/17 19:13:11;;;;;;;4.72;4.18;;;5.80;99.90;;;;;;7287372;32;20487;-55
2024/04/17 19:17:16;;;;;;;4.53;4.03;;;5.80;99.90;;;;;;7287418;32;20340;-56
2024/04/17 19:21:17;;;;;;;6.37;4.78;;;5.80;99.90;;;;;;7287366;32;20698;-55
2024/04/17 19:25:20;;;;;;;6.68;4.72;;;5.70;99.90;;;;;;7287519;32;20116;-56
2024/04/17 19:29:22;;;;;;;5.32;4.80;;;5.80;99.90;;;;;;7284950;32;20148;-56
2024/04/17 19:33:30;;;;;;;7.00;4.65;;;5.80;99.90;;;;;;7292256;32;20127;-57
2024/04/17 19:37:34;;;;;;;7.93;4.90;;;5.80;99.90;;;;;;7282019;32;20712;-57
2024/04/17 19:41:35;;;;;;;6.78;5.07;;;5.80;99.90;;;;;;7290234;32;20131;-59
2024/04/17 19:45:37;;;;;;;6.80;5.22;;;5.80;99.90;;;;;;7293468;32;20131;-56
2024/04/17 19:49:38;;;;;;;8.00;4.72;;;5.90;99.90;;;;;;7291885;32;20124;-58
2024/04/17 19:53:43;;;;;;;7.57;5.18;;;5.90;99.90;;;;;;7282299;32;20142;-56
2024/04/17 19:57:45;;;;;;;7.50;5.87;;;5.90;99.90;;;;;;7256513;32;20175;-56
2024/04/17 20:01:47;;;;;;;7.60;5.97;;;5.90;99.90;;;;;;7283817;32;20536;-56
2024/04/17 20:05:53;;;;;;;8.25;5.75;;;5.80;99.90;;;;;;7283033;32;20153;-56
2024/04/17 20:09:56;;;;;;;9.18;5.62;;;5.70;99.90;;;;;;7290258;32;20203;-56
2024/04/17 20:13:59;;;;;;;6.47;5.03;;;5.70;99.90;;;;;;7289391;32;20501;-56
2024/04/17 20:18:03;;;;;;;6.43;5.30;;;5.80;99.90;;;;;;7294810;32;20104;-57
2024/04/17 20:22:06;;;;;;;7.28;5.80;;;5.80;99.90;;;;;;7293996;32;20175;-58
2024/04/17 20:26:09;;;;;;;8.25;6.22;;;5.80;99.90;;;;;;7285057;32;20108;-56
2024/04/17 20:30:12;;;;;;;6.62;5.07;;;5.80;99.90;;;;;;7284220;32;20123;-55
2024/04/17 20:34:14;;;;;;;8.52;6.30;;;5.80;99.90;;;;;;7278701;32;20258;-56
2024/04/17 20:38:16;;;;;;;10.05;6.68;;;5.80;99.90;;;;;;7293097;32;20104;-56
2024/04/17 20:42:18;;;;;;;8.68;6.28;;;5.80;99.90;;;;;;7293251;32;20191;-56
2024/04/17 20:46:20;;;;;;;7.82;6.43;;;5.80;99.90;;;;;;7292776;32;20127;-56
2024/04/17 20:50:25;;;;;;;9.25;6.43;;;5.90;99.90;;;;;;7283611;32;22230;-56
2024/04/17 20:54:26;;;;;;;7.20;6.03;;;5.90;99.90;;;;;;7289330;32;20162;-56
2024/04/17 20:58:28;;;;;;;10.90;6.70;;;5.90;99.90;;;;;;7296578;32;20548;-57
2024/04/17 21:02:29;;;;;;;10.55;7.00;;;5.90;99.90;;;;;;7286652;32;20123;-56
2024/04/17 21:06:31;;;;;;;7.68;6.60;;;5.90;99.90;;;;;;7286514;32;20123;-56
2024/04/17 21:10:32;;;;;;;9.18;7.20;;;5.90;99.90;;;;;;7290759;32;20189;-56
2024/04/17 21:14:33;;;;;;;9.38;7.18;;;5.90;99.90;;;;;;7289485;32;20184;-56